Time;durP1;ratioP1;P1;durP2;ratioP2;P2;SDS_P1;SDS_P2;PMS_P1;PMS_P2;Temp;Humidity;BMP_temperature;BMP_pressure;BME280_temperature;BME280_humidity;BME280_pressure;Samples;Min_cycle;Max_cycle;Signal;HPM_P1;HPM_P2
2023/08/08 00:01:03;;;;;;;1.35;1.17;;;17.00;80.40;;;;;;5039673;28;20030;-67
2023/08/08 00:03:29;;;;;;;1.73;1.15;;;17.00;80.50;;;;;;5047661;28;20118;-64
2023/08/08 00:05:54;;;;;;;0.95;0.73;;;17.00;80.60;;;;;;5041582;28;20044;-64
2023/08/08 00:08:20;;;;;;;0.93;0.75;;;16.90;80.70;;;;;;5053059;28;20029;-65
2023/08/08 00:10:46;;;;;;;2.13;1.25;;;16.90;80.70;;;;;;5046320;28;20025;-67
2023/08/08 00:13:11;;;;;;;1.80;0.80;;;16.90;80.70;;;;;;5052882;28;20577;-64
2023/08/08 00:15:37;;;;;;;0.50;0.50;;;16.90;80.80;;;;;;5053482;28;20373;-67
2023/08/08 00:18:03;;;;;;;1.83;0.88;;;16.90;80.80;;;;;;5052502;28;20396;-64
2023/08/08 00:20:29;;;;;;;0.90;0.90;;;16.90;80.80;;;;;;5045427;28;20025;-68
2023/08/08 00:22:54;;;;;;;1.33;1.00;;;16.90;80.70;;;;;;5046906;28;20476;-67
2023/08/08 00:25:20;;;;;;;1.48;1.00;;;16.90;80.80;;;;;;5045017;28;20550;-67
2023/08/08 00:27:46;;;;;;;1.83;1.00;;;16.90;80.90;;;;;;5046602;28;20083;-67
2023/08/08 00:30:15;;;;;;;1.17;0.77;;;16.90;80.90;;;;;;5051529;28;20044;-64
2023/08/08 00:32:41;;;;;;;1.65;1.08;;;16.90;81.00;;;;;;5050976;28;20029;-64
2023/08/08 00:35:07;;;;;;;2.03;1.20;;;16.90;81.10;;;;;;5046399;28;20017;-64
2023/08/08 00:37:32;;;;;;;1.90;1.00;;;16.90;81.10;;;;;;5048538;28;20481;-64
2023/08/08 00:39:58;;;;;;;2.17;1.33;;;16.90;81.20;;;;;;5045442;28;20074;-64
2023/08/08 00:42:24;;;;;;;3.15;1.00;;;16.90;81.70;;;;;;5050013;28;20037;-67
2023/08/08 00:44:49;;;;;;;2.03;1.10;;;16.90;81.20;;;;;;5045007;28;20068;-67
2023/08/08 00:47:15;;;;;;;1.63;1.08;;;16.90;81.20;;;;;;5048130;28;20069;-64
2023/08/08 00:49:43;;;;;;;2.38;1.67;;;16.90;81.20;;;;;;5051797;28;20041;-64
2023/08/08 00:52:09;;;;;;;2.65;0.80;;;16.90;81.40;;;;;;5043588;28;20037;-64
2023/08/08 00:54:35;;;;;;;3.22;1.27;;;16.90;81.50;;;;;;5051602;28;20531;-67
2023/08/08 00:57:01;;;;;;;2.08;0.90;;;16.80;81.60;;;;;;5055492;28;20116;-67
2023/08/08 00:59:27;;;;;;;1.50;1.00;;;16.80;81.70;;;;;;5057113;28;20040;-64
2023/08/08 01:01:53;;;;;;;2.40;1.20;;;16.80;81.70;;;;;;5049183;28;20052;-64
2023/08/08 01:04:19;;;;;;;2.00;0.90;;;16.80;81.70;;;;;;5050967;28;20510;-64
2023/08/08 01:07:17;;;;;;;1.67;1.58;;;16.80;81.70;;;;;;5051788;28;20511;-67
2023/08/08 01:09:51;;;;;;;1.08;0.68;;;16.90;81.70;;;;;;5045532;28;20024;-67
2023/08/08 01:12:17;;;;;;;1.27;0.88;;;16.90;81.70;;;;;;5043009;28;20377;-67
2023/08/08 01:14:43;;;;;;;1.25;0.98;;;16.90;81.80;;;;;;5051171;28;20460;-66
2023/08/08 01:17:11;;;;;;;3.05;1.00;;;16.90;81.70;;;;;;5042865;28;20043;-66
2023/08/08 01:19:37;;;;;;;1.58;1.10;;;16.90;82.20;;;;;;5051913;28;20028;-66
2023/08/08 01:22:07;;;;;;;1.58;1.20;;;16.90;81.70;;;;;;5044678;28;20037;-66
2023/08/08 01:24:36;;;;;;;1.85;1.08;;;16.80;81.80;;;;;;5052174;28;20476;-66
2023/08/08 01:27:04;;;;;;;1.92;1.25;;;16.80;81.90;;;;;;5047777;28;20463;-66
2023/08/08 01:29:29;;;;;;;1.58;1.17;;;16.80;82.10;;;;;;5049913;28;20712;-66
2023/08/08 01:31:55;;;;;;;3.25;1.38;;;16.80;82.20;;;;;;5045712;28;20079;-66
2023/08/08 01:34:21;;;;;;;1.42;0.90;;;16.80;82.20;;;;;;5045040;28;20028;-66
2023/08/08 01:37:11;;;;;;;1.33;1.00;;;16.80;82.20;;;;;;5045759;28;20037;-67
2023/08/08 01:39:38;;;;;;;4.25;1.48;;;16.80;82.10;;;;;;5039616;28;20416;-66
2023/08/08 01:42:06;;;;;;;1.48;0.98;;;16.80;82.30;;;;;;5047792;28;20020;-66
2023/08/08 01:44:32;;;;;;;1.30;0.90;;;16.70;82.50;;;;;;5044958;28;20031;-66
2023/08/08 01:46:58;;;;;;;0.93;0.85;;;16.70;82.50;;;;;;5048150;28;20029;-67
2023/08/08 01:49:24;;;;;;;2.30;1.55;;;16.70;82.60;;;;;;5055214;28;20028;-66
2023/08/08 01:51:50;;;;;;;1.80;1.13;;;16.70;82.60;;;;;;5059107;28;20029;-66
2023/08/08 01:54:16;;;;;;;1.52;1.08;;;16.70;82.60;;;;;;5052654;28;20472;-67
2023/08/08 01:56:42;;;;;;;2.17;1.00;;;16.70;82.70;;;;;;5035587;28;20029;-66
2023/08/08 01:59:07;;;;;;;1.52;0.80;;;16.80;82.60;;;;;;5042110;28;20049;-67
2023/08/08 02:01:33;;;;;;;1.65;1.08;;;16.80;82.50;;;;;;5052893;28;20503;-65
2023/08/08 02:03:59;;;;;;;0.98;0.85;;;16.80;82.60;;;;;;5043642;28;20068;-64
2023/08/08 02:06:24;;;;;;;1.08;0.77;;;16.80;82.60;;;;;;5043976;28;20350;-65
2023/08/08 02:08:50;;;;;;;1.20;0.90;;;16.80;82.60;;;;;;5047760;28;20029;-66
2023/08/08 02:11:16;;;;;;;0.60;0.60;;;16.80;82.60;;;;;;5049281;28;20037;-65
2023/08/08 02:13:41;;;;;;;1.13;0.98;;;16.80;82.60;;;;;;5057986;28;20119;-65
2023/08/08 02:16:07;;;;;;;1.45;0.75;;;16.80;82.70;;;;;;5046190;28;20029;-64
2023/08/08 02:18:33;;;;;;;0.98;0.60;;;16.80;82.70;;;;;;5045933;28;20033;-65
2023/08/08 02:20:58;;;;;;;1.08;0.95;;;16.80;82.60;;;;;;5051717;28;20031;-67
2023/08/08 02:23:24;;;;;;;1.50;1.00;;;16.80;82.60;;;;;;5050920;28;20033;-66
2023/08/08 02:25:52;;;;;;;1.63;1.00;;;16.80;82.60;;;;;;5051952;28;20028;-67
2023/08/08 02:28:18;;;;;;;6.20;1.00;;;16.80;82.60;;;;;;5041892;28;20112;-67
2023/08/08 02:30:44;;;;;;;0.75;0.63;;;16.80;82.70;;;;;;5055710;28;20041;-65
2023/08/08 02:33:10;;;;;;;1.40;0.65;;;16.80;82.70;;;;;;5048919;28;20041;-65
2023/08/08 02:35:37;;;;;;;1.48;1.05;;;16.80;82.80;;;;;;5046606;28;20033;-64
2023/08/08 02:38:03;;;;;;;4.18;1.10;;;16.70;82.80;;;;;;5045699;28;20090;-65
2023/08/08 02:40:29;;;;;;;1.30;0.90;;;16.70;83.00;;;;;;5045361;28;20045;-65
2023/08/08 02:42:54;;;;;;;1.95;1.25;;;16.70;83.10;;;;;;5046182;28;20037;-65
2023/08/08 02:45:20;;;;;;;2.20;1.13;;;16.60;83.10;;;;;;5042422;28;20037;-64
2023/08/08 02:47:46;;;;;;;1.83;0.85;;;16.60;83.20;;;;;;5046437;28;20054;-64
2023/08/08 02:50:11;;;;;;;0.63;0.60;;;16.50;83.10;;;;;;5049049;28;20475;-65
2023/08/08 02:52:37;;;;;;;1.25;0.65;;;16.60;83.10;;;;;;5044255;28;20037;-67
2023/08/08 02:55:03;;;;;;;1.98;0.85;;;16.60;83.20;;;;;;5044464;28;20116;-67
2023/08/08 02:57:29;;;;;;;0.60;0.57;;;16.60;83.20;;;;;;5050379;28;20028;-66
2023/08/08 02:59:54;;;;;;;2.42;1.25;;;16.60;83.10;;;;;;5048057;28;20056;-67
2023/08/08 03:02:20;;;;;;;1.58;0.70;;;16.50;83.00;;;;;;5041256;28;20032;-67
2023/08/08 03:04:46;;;;;;;1.58;1.20;;;16.60;83.10;;;;;;5055153;28;20025;-67
2023/08/08 03:07:11;;;;;;;1.13;0.75;;;16.50;83.00;;;;;;5043539;28;20052;-67
2023/08/08 03:09:37;;;;;;;1.67;0.90;;;16.50;83.10;;;;;;5051465;28;20029;-66
2023/08/08 03:12:03;;;;;;;1.02;0.93;;;16.50;83.20;;;;;;5048598;28;20542;-64
2023/08/08 03:14:29;;;;;;;2.20;1.30;;;16.50;83.20;;;;;;5042805;28;20072;-64
2023/08/08 03:16:54;;;;;;;1.23;0.70;;;16.50;83.20;;;;;;5046845;28;20080;-64
2023/08/08 03:19:20;;;;;;;0.90;0.90;;;16.50;83.30;;;;;;5042516;28;20044;-65
2023/08/08 03:21:46;;;;;;;8.15;1.30;;;16.40;83.40;;;;;;5050445;28;20380;-64
2023/08/08 03:24:12;;;;;;;1.33;1.00;;;16.40;83.50;;;;;;5042002;28;20040;-64
2023/08/08 03:26:37;;;;;;;1.92;0.80;;;16.40;83.50;;;;;;5043023;28;20033;-64
2023/08/08 03:29:03;;;;;;;2.70;0.98;;;16.40;83.80;;;;;;5042728;28;20037;-64
2023/08/08 03:31:29;;;;;;;1.35;0.90;;;16.40;83.90;;;;;;5047299;28;20125;-64
2023/08/08 03:33:54;;;;;;;2.08;1.00;;;16.40;84.10;;;;;;5039091;28;20510;-64
2023/08/08 03:36:20;;;;;;;1.58;1.13;;;16.40;84.20;;;;;;5045006;28;20536;-64
2023/08/08 03:38:50;;;;;;;1.25;1.05;;;16.40;84.30;;;;;;5036984;28;20113;-64
2023/08/08 03:41:15;;;;;;;4.25;2.17;;;16.40;84.20;;;;;;5045771;28;20041;-64
2023/08/08 03:43:41;;;;;;;2.05;1.40;;;16.40;85.00;;;;;;5042050;28;20467;-64
2023/08/08 03:46:07;;;;;;;2.97;1.23;;;16.40;84.30;;;;;;5037106;28;20085;-64
2023/08/08 03:48:32;;;;;;;1.13;1.02;;;16.50;84.50;;;;;;5037110;28;20038;-67
2023/08/08 03:50:58;;;;;;;2.58;1.08;;;16.40;84.80;;;;;;5044589;28;20031;-67
2023/08/08 03:53:24;;;;;;;4.05;1.98;;;16.40;84.80;;;;;;5043519;28;20276;-67
2023/08/08 03:55:49;;;;;;;3.58;1.63;;;16.40;84.80;;;;;;5042286;28;20492;-67
2023/08/08 03:58:15;;;;;;;3.53;1.27;;;16.40;84.90;;;;;;5049339;28;20034;-67
2023/08/08 04:00:46;;;;;;;6.13;1.35;;;16.50;85.00;;;;;;5054803;28;20038;-67
2023/08/08 04:03:17;;;;;;;2.60;2.00;;;16.50;84.90;;;;;;5048147;28;20021;-64
2023/08/08 04:05:47;;;;;;;3.33;1.25;;;16.50;85.10;;;;;;5051860;28;20049;-64
2023/08/08 04:08:16;;;;;;;1.90;1.50;;;16.40;85.10;;;;;;5041261;28;20036;-64
2023/08/08 04:10:43;;;;;;;1.67;1.58;;;16.40;85.30;;;;;;5042746;28;20037;-64
2023/08/08 04:13:09;;;;;;;3.53;1.70;;;16.40;85.40;;;;;;5046913;28;20116;-65
2023/08/08 04:15:35;;;;;;;2.50;1.50;;;16.50;85.40;;;;;;5032931;28;20041;-64
2023/08/08 04:18:01;;;;;;;1.52;1.23;;;16.40;85.50;;;;;;5043548;28;20035;-65
2023/08/08 04:20:27;;;;;;;1.50;1.20;;;16.40;85.50;;;;;;5050027;28;20120;-64
2023/08/08 04:22:52;;;;;;;1.85;1.30;;;16.40;85.70;;;;;;5050029;28;20546;-64
2023/08/08 04:25:19;;;;;;;1.77;1.42;;;16.40;85.70;;;;;;5046644;28;20476;-64
2023/08/08 04:27:45;;;;;;;2.78;1.92;;;16.40;85.60;;;;;;5044208;28;20108;-64
2023/08/08 04:30:10;;;;;;;2.85;1.90;;;16.40;85.70;;;;;;5045107;28;20116;-68
2023/08/08 04:32:36;;;;;;;2.03;1.83;;;16.40;85.80;;;;;;5037701;28;20033;-69
2023/08/08 04:35:02;;;;;;;2.25;1.10;;;16.30;85.80;;;;;;5042214;28;20037;-67
2023/08/08 04:37:27;;;;;;;1.73;0.90;;;16.40;85.80;;;;;;5042031;28;20033;-68
2023/08/08 04:39:53;;;;;;;1.83;1.30;;;16.40;85.80;;;;;;5041717;28;20112;-67
2023/08/08 04:42:19;;;;;;;1.95;1.02;;;16.40;85.70;;;;;;5038344;28;20044;-67
2023/08/08 04:44:44;;;;;;;1.55;1.20;;;16.50;85.60;;;;;;5036166;28;20029;-67
2023/08/08 04:47:10;;;;;;;2.38;1.60;;;16.50;85.50;;;;;;5042188;28;20025;-67
2023/08/08 04:49:36;;;;;;;2.53;1.45;;;16.40;85.60;;;;;;5042914;28;20036;-68
2023/08/08 04:52:01;;;;;;;1.88;1.25;;;16.40;85.60;;;;;;5045542;28;20064;-64
2023/08/08 04:54:27;;;;;;;2.40;1.55;;;16.40;85.60;;;;;;5050022;28;20476;-64
2023/08/08 04:56:53;;;;;;;1.60;1.48;;;16.50;85.80;;;;;;5048294;28;20048;-64
2023/08/08 04:59:18;;;;;;;2.15;1.63;;;16.40;85.80;;;;;;5049711;28;20037;-64
2023/08/08 05:01:44;;;;;;;6.20;1.55;;;16.40;85.70;;;;;;5052965;28;20083;-65
2023/08/08 05:04:10;;;;;;;1.20;1.10;;;16.40;85.80;;;;;;5041347;28;20380;-67
2023/08/08 05:06:35;;;;;;;1.73;1.42;;;16.40;85.90;;;;;;5030806;28;20599;-67
2023/08/08 05:09:01;;;;;;;2.00;1.23;;;16.40;86.00;;;;;;5050376;28;20033;-68
2023/08/08 05:11:26;;;;;;;6.38;1.35;;;16.40;86.00;;;;;;5051443;28;20029;-67
2023/08/08 05:13:52;;;;;;;5.20;1.67;;;16.40;86.00;;;;;;5049748;28;20086;-67
2023/08/08 05:16:18;;;;;;;2.33;1.58;;;16.40;86.00;;;;;;5046052;28;20075;-68
2023/08/08 05:18:45;;;;;;;2.75;1.23;;;16.40;86.20;;;;;;5044979;28;20037;-67
2023/08/08 05:21:10;;;;;;;5.63;2.35;;;16.40;86.30;;;;;;5043366;28;20079;-68
2023/08/08 05:23:36;;;;;;;1.65;1.48;;;16.40;86.30;;;;;;5051721;28;20041;-65
2023/08/08 05:26:03;;;;;;;4.68;1.85;;;16.40;86.30;;;;;;5050981;28;20037;-67
2023/08/08 05:28:29;;;;;;;3.05;1.80;;;16.50;86.40;;;;;;5044352;28;20388;-68
2023/08/08 05:30:56;;;;;;;3.17;1.55;;;16.50;86.30;;;;;;5040855;28;20033;-68
2023/08/08 05:33:22;;;;;;;3.60;1.88;;;16.60;86.30;;;;;;5048745;28;20037;-67
2023/08/08 05:35:47;;;;;;;7.57;2.30;;;16.60;86.40;;;;;;5036808;28;20032;-67
2023/08/08 05:38:13;;;;;;;7.25;2.60;;;16.60;86.60;;;;;;5053199;28;20077;-68
2023/08/08 05:40:39;;;;;;;5.35;2.30;;;16.60;86.60;;;;;;5047656;28;20040;-67
2023/08/08 05:43:04;;;;;;;2.75;1.60;;;16.60;86.60;;;;;;5041835;28;20088;-65
2023/08/08 05:45:31;;;;;;;2.28;1.95;;;16.60;86.60;;;;;;5043451;28;20112;-64
2023/08/08 05:47:57;;;;;;;3.38;1.58;;;16.70;86.40;;;;;;5043253;28;20727;-64
2023/08/08 05:50:23;;;;;;;1.58;1.40;;;16.70;86.30;;;;;;5049183;28;20074;-67
2023/08/08 05:52:48;;;;;;;5.20;2.05;;;16.70;86.30;;;;;;5039147;28;20033;-68
2023/08/08 05:55:14;;;;;;;1.88;1.60;;;16.80;86.40;;;;;;5048010;28;20143;-67
2023/08/08 05:57:40;;;;;;;2.72;1.95;;;16.80;86.30;;;;;;5056037;28;20029;-67
2023/08/08 06:00:08;;;;;;;6.00;1.90;;;16.80;86.20;;;;;;5048267;28;20037;-66
2023/08/08 06:02:34;;;;;;;5.15;2.45;;;16.90;86.10;;;;;;5059813;28;20029;-70
2023/08/08 06:04:59;;;;;;;3.13;2.05;;;16.90;86.00;;;;;;5054774;28;20029;-70
2023/08/08 06:07:25;;;;;;;3.58;1.58;;;16.90;86.00;;;;;;5048842;28;20053;-71
2023/08/08 06:09:51;;;;;;;2.78;1.98;;;17.00;86.00;;;;;;5046565;28;20059;-71
2023/08/08 06:12:17;;;;;;;4.80;1.50;;;17.00;85.90;;;;;;5051730;28;20040;-71
2023/08/08 06:14:42;;;;;;;2.70;1.30;;;17.00;86.00;;;;;;5043864;28;20025;-71
2023/08/08 06:17:08;;;;;;;8.75;2.33;;;17.00;85.90;;;;;;5032140;28;20121;-69
2023/08/08 06:19:34;;;;;;;2.35;1.42;;;17.00;85.90;;;;;;5047409;28;20026;-71
2023/08/08 06:22:00;;;;;;;3.28;1.63;;;17.00;85.90;;;;;;5043304;28;20029;-69
2023/08/08 06:24:25;;;;;;;4.80;1.67;;;17.10;85.90;;;;;;5044939;28;20024;-72
2023/08/08 06:26:51;;;;;;;4.68;1.20;;;17.10;85.90;;;;;;5050049;28;20384;-71
2023/08/08 06:29:17;;;;;;;1.50;0.98;;;17.20;85.80;;;;;;5045148;28;20033;-71
2023/08/08 06:31:42;;;;;;;5.25;1.50;;;17.20;85.60;;;;;;5055172;28;20112;-71
2023/08/08 06:34:08;;;;;;;5.00;1.83;;;17.20;85.50;;;;;;5047846;28;20031;-71
2023/08/08 06:36:34;;;;;;;3.03;1.65;;;17.30;85.60;;;;;;5041911;28;20507;-67
2023/08/08 06:39:00;;;;;;;4.68;1.40;;;17.30;85.50;;;;;;5042926;28;20037;-67
2023/08/08 06:41:26;;;;;;;2.17;1.90;;;17.30;85.40;;;;;;5048051;28;20098;-67
2023/08/08 06:43:51;;;;;;;2.17;1.33;;;17.30;85.10;;;;;;5033675;28;20043;-73
2023/08/08 06:46:20;;;;;;;4.80;1.40;;;17.30;85.00;;;;;;5051571;28;20060;-69
2023/08/08 06:48:46;;;;;;;1.80;1.38;;;17.30;85.10;;;;;;5043981;28;20039;-64
2023/08/08 06:51:12;;;;;;;1.92;1.38;;;17.40;84.90;;;;;;5046143;28;20067;-66
2023/08/08 06:53:38;;;;;;;4.93;1.35;;;17.50;84.60;;;;;;5053012;28;20460;-65
2023/08/08 06:56:04;;;;;;;3.17;1.35;;;17.60;84.30;;;;;;5052819;28;20037;-65
2023/08/08 06:58:30;;;;;;;2.08;0.95;;;17.60;84.20;;;;;;5052295;28;20079;-64
2023/08/08 07:00:55;;;;;;;4.38;1.38;;;17.70;84.00;;;;;;5043023;28;20037;-70
2023/08/08 07:03:21;;;;;;;1.60;0.80;;;17.80;83.90;;;;;;5050732;28;20045;-67
2023/08/08 07:05:51;;;;;;;1.95;1.13;;;17.90;83.70;;;;;;5053802;28;20048;-63
2023/08/08 07:08:18;;;;;;;1.77;1.20;;;17.90;83.40;;;;;;5046968;28;20061;-69
2023/08/08 07:10:44;;;;;;;2.38;1.75;;;18.00;83.20;;;;;;5055397;28;20024;-69
2023/08/08 07:13:09;;;;;;;0.95;0.70;;;18.10;82.70;;;;;;5049919;28;20480;-68
2023/08/08 07:15:35;;;;;;;2.70;0.90;;;18.10;82.40;;;;;;5042518;28;20041;-68
2023/08/08 07:18:01;;;;;;;2.55;0.90;;;18.20;82.30;;;;;;5042475;28;20033;-74
2023/08/08 07:20:26;;;;;;;1.52;1.00;;;18.20;82.10;;;;;;5049910;28;20041;-73
2023/08/08 07:22:53;;;;;;;1.83;0.70;;;18.30;81.90;;;;;;5038095;28;20124;-64
2023/08/08 07:25:18;;;;;;;1.90;0.85;;;18.30;81.40;;;;;;5042196;28;20025;-71
2023/08/08 07:27:44;;;;;;;1.08;0.50;;;18.40;79.90;;;;;;5035069;28;20036;-76
2023/08/08 07:30:11;;;;;;;1.25;0.60;;;18.40;79.90;;;;;;5054336;28;20086;-75
2023/08/08 07:32:37;;;;;;;1.95;0.70;;;18.40;79.40;;;;;;5039316;28;20037;-70
2023/08/08 07:35:05;;;;;;;0.75;0.75;;;18.50;78.50;;;;;;5042057;28;20086;-69
2023/08/08 07:37:32;;;;;;;0.47;0.38;;;18.50;78.20;;;;;;5041949;28;20053;-64
2023/08/08 07:39:58;;;;;;;0.70;0.65;;;18.50;77.10;;;;;;5040027;28;20052;-64
2023/08/08 07:42:23;;;;;;;0.40;0.40;;;18.60;77.20;;;;;;5035079;28;20071;-64
2023/08/08 07:44:50;;;;;;;0.68;0.60;;;18.70;76.50;;;;;;5040501;28;20044;-64
2023/08/08 07:47:15;;;;;;;0.65;0.40;;;18.70;76.50;;;;;;5040396;28;20031;-68
2023/08/08 07:49:41;;;;;;;0.90;0.60;;;18.80;76.70;;;;;;5041277;28;20257;-69
2023/08/08 07:52:07;;;;;;;0.77;0.55;;;18.80;75.30;;;;;;5040566;28;20029;-69
2023/08/08 07:54:33;;;;;;;6.65;0.95;;;18.80;74.70;;;;;;5039967;28;20080;-69
2023/08/08 07:56:59;;;;;;;2.05;0.45;;;18.80;74.90;;;;;;5047256;28;20105;-69
2023/08/08 07:59:25;;;;;;;1.08;0.60;;;18.90;74.70;;;;;;5050286;28;20108;-63
2023/08/08 08:01:51;;;;;;;1.05;0.50;;;18.90;73.30;;;;;;5047824;28;20027;-63
2023/08/08 08:04:17;;;;;;;1.55;0.55;;;19.00;73.40;;;;;;5044144;28;20396;-63
2023/08/08 08:06:42;;;;;;;0.75;0.75;;;19.10;73.20;;;;;;5045818;28;20033;-63
2023/08/08 08:09:08;;;;;;;1.63;1.08;;;19.20;72.80;;;;;;5028265;28;20765;-65
2023/08/08 08:11:34;;;;;;;1.10;0.38;;;19.30;73.20;;;;;;5034063;28;20624;-65
2023/08/08 08:13:59;;;;;;;3.67;0.77;;;19.30;71.30;;;;;;5040776;28;20082;-65
2023/08/08 08:16:25;;;;;;;0.50;0.50;;;19.30;69.70;;;;;;5035526;28;20110;-65
2023/08/08 08:18:51;;;;;;;0.40;0.32;;;19.20;69.70;;;;;;5036889;28;20032;-65
2023/08/08 08:21:17;;;;;;;2.80;0.82;;;19.20;69.70;;;;;;5032617;28;20594;-65
2023/08/08 08:23:44;;;;;;;0.82;0.30;;;19.20;69.80;;;;;;5030995;28;20052;-65
2023/08/08 08:26:10;;;;;;;0.40;0.40;;;19.20;69.40;;;;;;5026489;28;20426;-65
2023/08/08 08:28:35;;;;;;;0.63;0.50;;;19.30;69.80;;;;;;5037618;28;20037;-65
2023/08/08 08:31:05;;;;;;;1.27;0.38;;;19.30;69.30;;;;;;5027346;28;20041;-65
2023/08/08 08:33:31;;;;;;;0.75;0.50;;;19.40;68.30;;;;;;5037077;28;20506;-62
2023/08/08 08:35:57;;;;;;;0.68;0.30;;;19.50;68.50;;;;;;5035894;28;20072;-63
2023/08/08 08:38:23;;;;;;;0.30;0.30;;;19.60;67.40;;;;;;5038868;28;20041;-63
2023/08/08 08:40:49;;;;;;;0.22;0.22;;;19.60;67.40;;;;;;5038068;28;20036;-62
2023/08/08 08:43:16;;;;;;;0.50;0.35;;;19.60;67.70;;;;;;5040011;28;20569;-65
2023/08/08 08:45:49;;;;;;;2.90;0.57;;;19.70;67.60;;;;;;5044420;28;20083;-65
2023/08/08 08:48:16;;;;;;;0.40;0.30;;;19.80;67.70;;;;;;5041758;28;20021;-65
2023/08/08 08:50:43;;;;;;;1.75;0.52;;;19.80;67.50;;;;;;5037833;28;20033;-65
2023/08/08 08:53:11;;;;;;;0.63;0.52;;;19.70;67.40;;;;;;5044311;28;20079;-65
2023/08/08 08:55:37;;;;;;;0.80;0.57;;;19.80;67.40;;;;;;5046238;28;20412;-65
2023/08/08 08:58:04;;;;;;;0.30;0.30;;;19.80;66.90;;;;;;5042780;28;20103;-64
2023/08/08 09:00:30;;;;;;;0.30;0.30;;;19.80;66.40;;;;;;5040275;28;20060;-65
2023/08/08 09:02:56;;;;;;;1.55;0.20;;;19.70;66.30;;;;;;5025724;28;20053;-64
2023/08/08 09:05:25;;;;;;;0.30;0.30;;;19.80;65.50;;;;;;5035576;28;20065;-65
2023/08/08 09:07:51;;;;;;;0.80;0.47;;;19.70;65.80;;;;;;5028670;28;20468;-65
2023/08/08 09:10:17;;;;;;;0.30;0.30;;;19.70;66.40;;;;;;5028965;28;20409;-64
2023/08/08 09:12:44;;;;;;;0.35;0.35;;;19.80;66.70;;;;;;5039730;28;20032;-64
2023/08/08 09:15:10;;;;;;;0.50;0.50;;;19.90;67.00;;;;;;5045279;28;20476;-65
2023/08/08 09:17:40;;;;;;;0.30;0.30;;;20.00;66.30;;;;;;5038563;28;20514;-72
2023/08/08 09:20:07;;;;;;;0.30;0.30;;;20.00;66.00;;;;;;5054742;28;20029;-72
2023/08/08 09:22:32;;;;;;;0.40;0.40;;;19.90;65.00;;;;;;5048617;28;20391;-72
2023/08/08 09:24:58;;;;;;;0.52;0.30;;;19.90;64.50;;;;;;5045869;28;20108;-72
2023/08/08 09:27:24;;;;;;;0.25;0.25;;;20.10;64.50;;;;;;5049426;28;20692;-72
2023/08/08 09:29:50;;;;;;;0.38;0.38;;;20.20;63.90;;;;;;5053028;28;20075;-72
2023/08/08 09:32:17;;;;;;;0.20;0.20;;;20.20;63.50;;;;;;5039263;28;20103;-72
2023/08/08 09:34:43;;;;;;;0.30;0.30;;;20.30;63.50;;;;;;5042700;28;20502;-72
2023/08/08 09:37:10;;;;;;;0.50;0.40;;;20.30;63.60;;;;;;5042577;28;20033;-72
2023/08/08 09:39:36;;;;;;;0.45;0.30;;;20.20;63.30;;;;;;5029434;28;20045;-72
2023/08/08 09:42:04;;;;;;;0.65;0.30;;;20.20;62.60;;;;;;5044973;28;20417;-72
2023/08/08 09:44:31;;;;;;;0.20;0.20;;;20.10;62.00;;;;;;5050874;28;20037;-72
2023/08/08 09:46:57;;;;;;;0.30;0.30;;;20.00;63.00;;;;;;5045121;28;20083;-72
2023/08/08 09:49:23;;;;;;;0.30;0.30;;;20.00;62.90;;;;;;5038250;28;20021;-72
2023/08/08 09:51:52;;;;;;;0.35;0.35;;;20.00;62.60;;;;;;5044923;28;20574;-65
2023/08/08 09:54:19;;;;;;;0.90;0.32;;;20.10;61.00;;;;;;5035738;28;20032;-64
2023/08/08 09:56:45;;;;;;;0.20;0.20;;;20.10;60.70;;;;;;5080376;28;20507;-65
2023/08/08 09:59:12;;;;;;;0.30;0.30;;;20.00;61.10;;;;;;5047127;28;20033;-65
2023/08/08 10:01:39;;;;;;;0.40;0.40;;;20.10;60.00;;;;;;5042741;28;20072;-64
2023/08/08 10:04:06;;;;;;;0.30;0.20;;;20.10;60.00;;;;;;5041374;28;20835;-65
2023/08/08 10:06:32;;;;;;;0.30;0.30;;;20.00;60.20;;;;;;5045932;28;20045;-64
2023/08/08 10:08:58;;;;;;;1.33;0.40;;;20.10;59.60;;;;;;5040147;28;20037;-64
2023/08/08 10:11:25;;;;;;;1.05;0.30;;;20.10;59.90;;;;;;5047730;28;20094;-65
2023/08/08 10:13:53;;;;;;;0.20;0.20;;;20.10;60.20;;;;;;5044947;28;20030;-65
2023/08/08 10:16:19;;;;;;;0.50;0.50;;;20.00;60.00;;;;;;5043896;28;20059;-65
2023/08/08 10:18:54;;;;;;;0.95;0.30;;;20.20;59.70;;;;;;5038562;28;20113;-65
2023/08/08 10:21:22;;;;;;;0.52;0.50;;;20.40;59.30;;;;;;5045318;28;20041;-64
2023/08/08 10:23:49;;;;;;;0.43;0.43;;;20.60;59.00;;;;;;5047004;28;20108;-64
2023/08/08 10:26:19;;;;;;;1.13;0.70;;;20.60;58.10;;;;;;5046960;28;20029;-72
2023/08/08 10:28:58;;;;;;;0.40;0.40;;;20.60;59.10;;;;;;5042121;28;20480;-72
2023/08/08 10:31:24;;;;;;;0.22;0.20;;;20.60;59.90;;;;;;5041822;28;20036;-64
2023/08/08 10:34:00;;;;;;;0.95;0.73;;;20.60;59.60;;;;;;5044792;28;20037;-64
2023/08/08 10:36:26;;;;;;;0.20;0.20;;;20.70;59.20;;;;;;5044751;28;20179;-64
2023/08/08 10:38:52;;;;;;;0.38;0.38;;;20.70;59.50;;;;;;5047556;28;20048;-72
2023/08/08 10:41:20;;;;;;;0.20;0.20;;;20.80;58.70;;;;;;5054629;28;20460;-71
2023/08/08 10:44:08;;;;;;;0.65;0.20;;;20.80;57.60;;;;;;5049127;28;20708;-72
2023/08/08 10:46:35;;;;;;;1.48;0.43;;;20.80;58.80;;;;;;5042986;28;20124;-65
2023/08/08 10:49:02;;;;;;;0.20;0.20;;;20.80;59.00;;;;;;5047149;28;20115;-72
2023/08/08 10:51:39;;;;;;;2.85;0.68;;;21.00;59.50;;;;;;5049001;28;20074;-72
2023/08/08 10:54:16;;;;;;;0.30;0.30;;;21.20;58.70;;;;;;5047823;28;20029;-72
2023/08/08 10:56:49;;;;;;;0.82;0.50;;;21.60;58.20;;;;;;5041670;28;20524;-72
2023/08/08 10:59:29;;;;;;;0.98;0.50;;;21.90;56.80;;;;;;5043175;28;20029;-65
2023/08/08 11:01:56;;;;;;;0.30;0.30;;;21.90;56.40;;;;;;5046710;28;20032;-65
2023/08/08 11:04:25;;;;;;;0.38;0.38;;;21.70;57.30;;;;;;5042190;28;20124;-65
2023/08/08 11:06:53;;;;;;;0.35;0.35;;;21.60;57.20;;;;;;5044598;28;20421;-69
2023/08/08 11:09:20;;;;;;;0.28;0.28;;;21.50;56.80;;;;;;5038484;28;20029;-69
2023/08/08 11:11:46;;;;;;;0.85;0.30;;;21.40;57.10;;;;;;5047467;28;20079;-62
2023/08/08 11:14:15;;;;;;;0.50;0.50;;;21.40;57.40;;;;;;5043083;28;20033;-65
2023/08/08 11:16:41;;;;;;;1.55;0.35;;;21.30;57.00;;;;;;5042424;28;20025;-64
2023/08/08 11:19:08;;;;;;;1.08;0.40;;;21.20;57.10;;;;;;5046992;28;20076;-65
2023/08/08 11:21:36;;;;;;;1.13;0.73;;;21.10;57.60;;;;;;5045984;28;20035;-72
2023/08/08 11:24:06;;;;;;;4.78;0.70;;;21.20;57.20;;;;;;5043734;28;20033;-72
2023/08/08 11:26:35;;;;;;;0.80;0.40;;;21.10;57.70;;;;;;5049766;28;20124;-72
2023/08/08 11:29:02;;;;;;;0.40;0.40;;;21.10;57.80;;;;;;5042279;28;20045;-72
2023/08/08 11:31:29;;;;;;;2.17;0.40;;;21.10;57.70;;;;;;5043475;28;21750;-72
2023/08/08 11:33:55;;;;;;;0.38;0.38;;;21.10;57.30;;;;;;5047237;28;20025;-65
2023/08/08 11:36:23;;;;;;;0.60;0.40;;;20.90;57.90;;;;;;5044029;28;20061;-64
2023/08/08 11:38:50;;;;;;;0.47;0.40;;;20.80;57.80;;;;;;5035947;28;20065;-65
2023/08/08 11:41:19;;;;;;;0.88;0.55;;;20.80;57.40;;;;;;5040290;28;20778;-72
2023/08/08 11:43:46;;;;;;;0.30;0.30;;;20.80;57.80;;;;;;5044153;28;20518;-72
2023/08/08 11:46:15;;;;;;;0.57;0.55;;;20.80;58.10;;;;;;5040579;28;20024;-72
2023/08/08 11:48:41;;;;;;;0.43;0.40;;;20.90;57.70;;;;;;5034704;28;20469;-72
2023/08/08 11:51:08;;;;;;;0.22;0.20;;;21.00;56.90;;;;;;5026990;28;20029;-64
2023/08/08 11:53:35;;;;;;;0.95;0.50;;;21.00;57.00;;;;;;5037883;28;20085;-72
2023/08/08 11:56:03;;;;;;;0.38;0.38;;;21.20;56.90;;;;;;5042917;28;20037;-72
2023/08/08 11:58:30;;;;;;;0.40;0.40;;;21.50;56.70;;;;;;5040673;28;20180;-64
2023/08/08 12:00:56;;;;;;;0.63;0.40;;;21.60;55.30;;;;;;5044403;28;20060;-65
2023/08/08 12:03:24;;;;;;;1.45;0.40;;;21.60;55.90;;;;;;5043675;28;20033;-64
2023/08/08 12:05:51;;;;;;;2.15;0.55;;;21.60;55.90;;;;;;5048187;28;20109;-65
2023/08/08 12:08:20;;;;;;;0.65;0.50;;;21.70;55.60;;;;;;5044553;28;20044;-65
2023/08/08 12:10:53;;;;;;;0.20;0.20;;;21.90;55.20;;;;;;5045635;28;20033;-64
2023/08/08 12:13:21;;;;;;;2.80;0.70;;;22.10;55.40;;;;;;5039371;28;20025;-72
2023/08/08 12:15:48;;;;;;;2.92;0.60;;;22.10;55.40;;;;;;5037821;28;20471;-69
2023/08/08 12:18:17;;;;;;;0.90;0.57;;;22.10;54.80;;;;;;5042467;28;20037;-62
2023/08/08 12:20:43;;;;;;;0.40;0.40;;;22.00;55.20;;;;;;5049976;28;20037;-65
2023/08/08 12:23:09;;;;;;;0.73;0.47;;;22.10;55.20;;;;;;5036586;28;20044;-72
2023/08/08 12:25:35;;;;;;;0.28;0.28;;;22.30;54.40;;;;;;5050835;28;20029;-65
2023/08/08 12:28:02;;;;;;;0.50;0.50;;;22.30;54.50;;;;;;5046887;28;20037;-65
2023/08/08 12:30:27;;;;;;;0.60;0.55;;;22.30;54.40;;;;;;5046115;28;20388;-72
2023/08/08 12:32:53;;;;;;;0.63;0.63;;;22.10;53.80;;;;;;5048491;28;20017;-65
2023/08/08 12:35:20;;;;;;;0.50;0.50;;;22.20;54.70;;;;;;5050602;28;20041;-72
2023/08/08 12:37:46;;;;;;;2.08;0.65;;;22.40;54.50;;;;;;5038579;28;20116;-72
2023/08/08 12:40:12;;;;;;;0.57;0.50;;;22.60;54.50;;;;;;5050008;28;20068;-72
2023/08/08 12:42:38;;;;;;;0.63;0.63;;;22.80;53.70;;;;;;5044410;28;20040;-72
2023/08/08 12:45:05;;;;;;;0.50;0.50;;;23.10;54.10;;;;;;5039355;28;20033;-65